Weather at Southern Command Police Station Heliport

Public forecast

Using degrees Fahrenheit for public forecast. Weather courtesy of forecast.io.

Closest aviation weather report (METAR) to Southern Command Police Station Heliport

Closest report is Phoenix Sky Harbor International Airport, 3.7 nm (6.9 km) ENE.

2024/07/18 15:51 (retrieved 45 minutes ago)

KPHX 181551Z 00000KT 10SM FEW080 FEW110 SCT140 SCT230 BKN290 37/14 A2992 RMK AO2 SLP108 CB DSNT SW SHRA DSNT W T03720144

Closest aviation forecast (TAF) to Southern Command Police Station Heliport

Closest forecast is Phoenix Sky Harbor International Airport, 3.7 nm (6.9 km) ENE.

2024/07/18 15:12 Ammendment (retrieved 1 hour ago)

TAF AMD KPHX 181509Z 1815/1918 VRB05KT P6SM FEW120 SCT150 SCT250 FM181900 27010KT P6SM FEW120 FEW250 FM190400 06012KT P6SM VCSH SCT120 BKN150 BKN250 TEMPO 1904/1906 05014G22KT FM190800 09006KT P6SM FEW120 SCT150 BKN250